Portada
METAR-TAF:

METAR-TAF

Aeroports :

Jiddah, Aràbia Saudita

Aeroport de Jiddah Rei Abdulaziz

latitud: 21-42N, longitud: 039-11E, altitud: 15 m

Observació

L'informe es va fer fa 11 minuts, a les 01:00 UTC
Vent 8 kt del Nord/Nord-Est
Temperatura 19°C
Humitat 60%
Pressió 1017 hPa
Visibilitat 10 km o més
sense núvols per sota de 1500 mi sense presència de cumulonimbus.

METAR: OEJN 200100Z 03008KT CAVOK 19/11 Q1017 NOSIG

Hora: 04:11 (01:11 UTC)

Pronòstic

L'informe es va fer fa 2 hores i 11 minuts, a les 23:00 UTC
Pronòstic vàlid del 20 a les 00 UTC al 21 a les 06 UTC
Vent 8 kt del Nord/Nord-Est
Visibilitat: 7000 m
Evolucionant progressivament
l' 20 a les 06 UTC al 20 a les 08 UTC
Vent 8 kt del Nord/Nord-Oest amb ràfegues de 18 kt

TAF: OEJN 192300Z 2000/2106 02008KT 7000 NSC BECMG 2006/2008 33008G18KT

Observacions i pronòstics meteorològics de més de 4000 aeroports (METAR i TAF).

Les estacions disponibles són els punts grocs i vermells al mapa.

Posi el ratolí al punt desitjat per veure el nom de l'estació.

Feu clic per veure les observacions i els pronòstics meteorològics.

Per canviar el mapa: feu clic els botons verds amb una creu de color negre per apropar; al botó verd amb un guió per allunyar la imatge; o en les fletxes verdes per a mapes adjacents.


METAR-TAF: